sensor_id;sensor_type;location;lat;lon;timestamp;P1;P2;P0
50587;PMS7003;36546;50.516;30.826;2023-03-31T00:00:12;31.60;29.10;19.10
50587;PMS7003;36546;50.516;30.826;2023-03-31T00:01:14;33.80;29.20;20.60
50587;PMS7003;36546;50.516;30.826;2023-03-31T00:02:16;32.60;30.00;19.80
50587;PMS7003;36546;50.516;30.826;2023-03-31T00:03:19;32.80;30.90;20.40
50587;PMS7003;36546;50.516;30.826;2023-03-31T00:04:22;33.00;29.70;19.40
50587;PMS7003;36546;50.516;30.826;2023-03-31T00:05:25;31.09;29.18;18.73
50587;PMS7003;36546;50.516;30.826;2023-03-31T00:06:28;30.80;27.00;17.40
50587;PMS7003;36546;50.516;30.826;2023-03-31T00:07:31;31.20;26.60;19.30
50587;PMS7003;36546;50.516;30.826;2023-03-31T00:08:33;25.70;23.30;16.50
50587;PMS7003;36546;50.516;30.826;2023-03-31T00:09:35;26.80;24.70;17.30
50587;PMS7003;36546;50.516;30.826;2023-03-31T00:10:38;27.80;25.40;18.10
50587;PMS7003;36546;50.516;30.826;2023-03-31T00:11:44;26.20;24.80;16.80
50587;PMS7003;36546;50.516;30.826;2023-03-31T00:12:46;29.50;25.50;16.50
50587;PMS7003;36546;50.516;30.826;2023-03-31T00:13:48;28.10;26.00;17.40
50587;PMS7003;36546;50.516;30.826;2023-03-31T00:14:51;31.70;24.70;16.90
50587;PMS7003;36546;50.516;30.826;2023-03-31T00:16:03;26.10;23.00;14.80
50587;PMS7003;36546;50.516;30.826;2023-03-31T00:17:08;24.20;22.50;16.70
50587;PMS7003;36546;50.516;30.826;2023-03-31T00:18:11;27.20;24.40;16.70
50587;PMS7003;36546;50.516;30.826;2023-03-31T00:19:13;30.20;26.30;18.30
50587;PMS7003;36546;50.516;30.826;2023-03-31T00:20:16;26.30;24.80;15.90
50587;PMS7003;36546;50.516;30.826;2023-03-31T00:22:30;26.00;22.40;16.00
50587;PMS7003;36546;50.516;30.826;2023-03-31T00:23:32;19.82;19.27;13.55
50587;PMS7003;36546;50.516;30.826;2023-03-31T00:24:35;20.10;19.40;13.40
50587;PMS7003;36546;50.516;30.826;2023-03-31T00:25:40;18.50;17.60;12.90
50587;PMS7003;36546;50.516;30.826;2023-03-31T00:26:43;20.70;17.80;11.80
50587;PMS7003;36546;50.516;30.826;2023-03-31T00:27:45;22.50;17.60;13.20
50587;PMS7003;36546;50.516;30.826;2023-03-31T00:28:48;20.40;19.00;14.40
50587;PMS7003;36546;50.516;30.826;2023-03-31T00:29:51;14.90;10.50;10.10
50587;PMS7003;36546;50.516;30.826;2023-03-31T00:30:58;19.70;18.70;13.00
50587;PMS7003;36546;50.516;30.826;2023-03-31T00:32:00;21.20;18.70;13.10
50587;PMS7003;36546;50.516;30.826;2023-03-31T00:33:02;19.50;16.60;12.90
50587;PMS7003;36546;50.516;30.826;2023-03-31T00:34:05;23.10;20.20;14.50
50587;PMS7003;36546;50.516;30.826;2023-03-31T00:35:08;24.00;20.55;15.27
50587;PMS7003;36546;50.516;30.826;2023-03-31T00:36:11;27.20;24.70;17.60
50587;PMS7003;36546;50.516;30.826;2023-03-31T00:37:14;25.80;22.80;16.40
50587;PMS7003;36546;50.516;30.826;2023-03-31T00:38:16;27.80;26.60;17.50
50587;PMS7003;36546;50.516;30.826;2023-03-31T00:39:19;27.90;26.20;18.20
50587;PMS7003;36546;50.516;30.826;2023-03-31T00:40:21;29.60;25.60;17.10
50587;PMS7003;36546;50.516;30.826;2023-03-31T00:41:25;29.50;25.00;16.40
50587;PMS7003;36546;50.516;30.826;2023-03-31T00:42:30;26.70;22.50;15.30
50587;PMS7003;36546;50.516;30.826;2023-03-31T00:43:34;27.90;24.60;17.10
50587;PMS7003;36546;50.516;30.826;2023-03-31T00:46:14;25.90;23.20;16.00
50587;PMS7003;36546;50.516;30.826;2023-03-31T00:47:23;19.30;19.00;13.00
50587;PMS7003;36546;50.516;30.826;2023-03-31T00:48:26;19.10;17.90;13.00
50587;PMS7003;36546;50.516;30.826;2023-03-31T00:49:33;19.70;18.60;12.20
50587;PMS7003;36546;50.516;30.826;2023-03-31T00:50:48;19.60;19.50;13.30
50587;PMS7003;36546;50.516;30.826;2023-03-31T00:51:58;20.20;16.20;11.90
50587;PMS7003;36546;50.516;30.826;2023-03-31T00:53:11;21.40;17.80;13.60
50587;PMS7003;36546;50.516;30.826;2023-03-31T00:54:14;16.60;16.40;11.50
50587;PMS7003;36546;50.516;30.826;2023-03-31T00:55:18;17.80;17.10;12.30
50587;PMS7003;36546;50.516;30.826;2023-03-31T00:56:23;19.10;15.90;13.10
50587;PMS7003;36546;50.516;30.826;2023-03-31T00:57:26;19.82;17.27;12.64
50587;PMS7003;36546;50.516;30.826;2023-03-31T00:58:30;22.80;19.60;13.40
50587;PMS7003;36546;50.516;30.826;2023-03-31T00:59:34;22.50;21.40;14.00
50587;PMS7003;36546;50.516;30.826;2023-03-31T01:00:52;29.00;26.40;18.50
50587;PMS7003;36546;50.516;30.826;2023-03-31T01:01:55;26.00;22.80;15.20
50587;PMS7003;36546;50.516;30.826;2023-03-31T01:02:59;31.60;28.60;19.60
50587;PMS7003;36546;50.516;30.826;2023-03-31T01:04:04;26.30;25.10;17.30
50587;PMS7003;36546;50.516;30.826;2023-03-31T01:05:08;25.60;24.90;17.30
50587;PMS7003;36546;50.516;30.826;2023-03-31T01:06:10;23.60;21.40;14.10
50587;PMS7003;36546;50.516;30.826;2023-03-31T01:07:31;25.60;22.50;16.50
50587;PMS7003;36546;50.516;30.826;2023-03-31T01:08:38;28.30;25.00;17.70
50587;PMS7003;36546;50.516;30.826;2023-03-31T01:09:42;28.00;25.09;18.82
50587;PMS7003;36546;50.516;30.826;2023-03-31T01:10:47;35.50;29.40;20.40
50587;PMS7003;36546;50.516;30.826;2023-03-31T01:11:52;33.90;28.80;20.20
50587;PMS7003;36546;50.516;30.826;2023-03-31T01:12:54;28.80;27.10;18.80
50587;PMS7003;36546;50.516;30.826;2023-03-31T01:13:58;32.70;30.00;20.90
50587;PMS7003;36546;50.516;30.826;2023-03-31T01:15:00;30.70;28.20;19.80
50587;PMS7003;36546;50.516;30.826;2023-03-31T01:16:05;31.70;28.40;19.80
50587;PMS7003;36546;50.516;30.826;2023-03-31T01:17:08;30.60;26.70;17.20
50587;PMS7003;36546;50.516;30.826;2023-03-31T01:18:11;34.70;30.80;19.60
50587;PMS7003;36546;50.516;30.826;2023-03-31T01:19:19;35.00;28.70;20.60
50587;PMS7003;36546;50.516;30.826;2023-03-31T01:22:04;22.90;21.30;11.30
50587;PMS7003;36546;50.516;30.826;2023-03-31T01:26:15;34.60;31.20;20.60
50587;PMS7003;36546;50.516;30.826;2023-03-31T01:32:45;27.50;24.80;19.70
50587;PMS7003;36546;50.516;30.826;2023-03-31T01:33:59;29.80;28.50;20.10
50587;PMS7003;36546;50.516;30.826;2023-03-31T01:35:20;24.90;22.90;10.90
50587;PMS7003;36546;50.516;30.826;2023-03-31T01:42:24;36.30;30.40;21.00
50587;PMS7003;36546;50.516;30.826;2023-03-31T01:43:52;29.40;28.80;19.50
50587;PMS7003;36546;50.516;30.826;2023-03-31T01:46:20;42.30;33.00;22.30
50587;PMS7003;36546;50.516;30.826;2023-03-31T01:47:35;37.90;31.80;20.50
50587;PMS7003;36546;50.516;30.826;2023-03-31T01:49:56;36.20;30.40;21.50
50587;PMS7003;36546;50.516;30.826;2023-03-31T01:51:16;36.70;31.90;22.40
50587;PMS7003;36546;50.516;30.826;2023-03-31T01:59:45;43.30;35.90;24.20
50587;PMS7003;36546;50.516;30.826;2023-03-31T02:00:54;41.00;33.30;21.70
50587;PMS7003;36546;50.516;30.826;2023-03-31T02:02:15;37.30;33.60;22.30
50587;PMS7003;36546;50.516;30.826;2023-03-31T02:03:16;38.40;33.80;22.50
50587;PMS7003;36546;50.516;30.826;2023-03-31T02:04:22;44.00;35.10;23.50
50587;PMS7003;36546;50.516;30.826;2023-03-31T02:06:47;39.60;34.90;23.00
50587;PMS7003;36546;50.516;30.826;2023-03-31T02:07:53;36.90;33.40;22.20
50587;PMS7003;36546;50.516;30.826;2023-03-31T02:09:05;42.50;33.40;22.30
50587;PMS7003;36546;50.516;30.826;2023-03-31T02:10:10;37.10;33.30;22.30
50587;PMS7003;36546;50.516;30.826;2023-03-31T02:11:14;43.50;35.20;23.20
50587;PMS7003;36546;50.516;30.826;2023-03-31T02:12:17;40.36;35.36;22.82
50587;PMS7003;36546;50.516;30.826;2023-03-31T02:13:22;43.80;36.40;23.50
50587;PMS7003;36546;50.516;30.826;2023-03-31T02:14:27;46.50;35.50;23.80
50587;PMS7003;36546;50.516;30.826;2023-03-31T02:16:44;47.20;38.80;26.00
50587;PMS7003;36546;50.516;30.826;2023-03-31T02:17:50;40.80;35.10;23.40
50587;PMS7003;36546;50.516;30.826;2023-03-31T02:18:55;42.70;34.20;23.20
50587;PMS7003;36546;50.516;30.826;2023-03-31T02:20:00;38.70;33.80;24.30
50587;PMS7003;36546;50.516;30.826;2023-03-31T02:21:12;41.00;34.60;23.20
50587;PMS7003;36546;50.516;30.826;2023-03-31T02:22:17;24.40;19.50;11.00
50587;PMS7003;36546;50.516;30.826;2023-03-31T02:23:22;43.30;35.40;23.30
50587;PMS7003;36546;50.516;30.826;2023-03-31T02:24:27;40.70;34.90;23.20
50587;PMS7003;36546;50.516;30.826;2023-03-31T02:25:33;40.60;35.00;23.00
50587;PMS7003;36546;50.516;30.826;2023-03-31T02:26:41;41.00;35.20;23.90
50587;PMS7003;36546;50.516;30.826;2023-03-31T02:27:58;40.50;36.20;23.80
50587;PMS7003;36546;50.516;30.826;2023-03-31T02:28:59;39.30;32.50;21.90
50587;PMS7003;36546;50.516;30.826;2023-03-31T02:30:02;38.10;33.70;22.60
50587;PMS7003;36546;50.516;30.826;2023-03-31T02:32:37;40.30;33.70;21.50
50587;PMS7003;36546;50.516;30.826;2023-03-31T02:33:41;39.50;33.20;21.40
50587;PMS7003;36546;50.516;30.826;2023-03-31T02:34:43;35.90;32.40;21.90
50587;PMS7003;36546;50.516;30.826;2023-03-31T02:35:46;34.90;31.20;21.40
50587;PMS7003;36546;50.516;30.826;2023-03-31T02:36:49;35.90;31.20;20.50
50587;PMS7003;36546;50.516;30.826;2023-03-31T02:37:51;32.80;30.20;20.90
50587;PMS7003;36546;50.516;30.826;2023-03-31T02:38:55;36.20;31.80;21.70
50587;PMS7003;36546;50.516;30.826;2023-03-31T02:40:05;35.20;31.70;21.30
50587;PMS7003;36546;50.516;30.826;2023-03-31T02:41:07;37.50;31.20;21.20
50587;PMS7003;36546;50.516;30.826;2023-03-31T02:42:11;32.60;29.60;21.70
50587;PMS7003;36546;50.516;30.826;2023-03-31T02:43:14;30.60;29.10;20.30
50587;PMS7003;36546;50.516;30.826;2023-03-31T02:44:16;30.00;28.60;20.40
50587;PMS7003;36546;50.516;30.826;2023-03-31T02:46:56;29.80;27.40;18.80
50587;PMS7003;36546;50.516;30.826;2023-03-31T02:47:58;35.40;29.80;20.10
50587;PMS7003;36546;50.516;30.826;2023-03-31T02:49:01;31.00;30.10;20.50
50587;PMS7003;36546;50.516;30.826;2023-03-31T02:50:06;32.20;29.00;18.20
50587;PMS7003;36546;50.516;30.826;2023-03-31T02:54:19;34.80;31.70;21.20
50587;PMS7003;36546;50.516;30.826;2023-03-31T03:02:18;40.30;34.70;23.10
50587;PMS7003;36546;50.516;30.826;2023-03-31T03:03:51;44.60;35.60;23.30
50587;PMS7003;36546;50.516;30.826;2023-03-31T03:13:21;46.00;39.10;25.20
50587;PMS7003;36546;50.516;30.826;2023-03-31T03:14:34;47.40;38.90;24.70
50587;PMS7003;36546;50.516;30.826;2023-03-31T03:16:58;41.70;35.20;24.30
50587;PMS7003;36546;50.516;30.826;2023-03-31T03:18:06;43.40;36.40;24.30
50587;PMS7003;36546;50.516;30.826;2023-03-31T03:19:09;44.70;37.20;24.20
50587;PMS7003;36546;50.516;30.826;2023-03-31T03:20:13;48.70;39.10;24.40
50587;PMS7003;36546;50.516;30.826;2023-03-31T03:21:16;41.80;35.70;23.70
50587;PMS7003;36546;50.516;30.826;2023-03-31T03:22:19;41.50;35.20;23.20
50587;PMS7003;36546;50.516;30.826;2023-03-31T03:23:22;39.40;34.00;22.70
50587;PMS7003;36546;50.516;30.826;2023-03-31T03:24:24;37.50;32.90;23.20
50587;PMS7003;36546;50.516;30.826;2023-03-31T03:25:26;39.20;34.00;23.40
50587;PMS7003;36546;50.516;30.826;2023-03-31T03:26:28;40.00;34.40;22.00
50587;PMS7003;36546;50.516;30.826;2023-03-31T03:27:31;42.70;34.50;22.80
50587;PMS7003;36546;50.516;30.826;2023-03-31T03:28:33;41.30;33.90;22.00
50587;PMS7003;36546;50.516;30.826;2023-03-31T03:29:36;37.30;32.70;22.60
50587;PMS7003;36546;50.516;30.826;2023-03-31T03:30:38;34.10;32.20;21.60
50587;PMS7003;36546;50.516;30.826;2023-03-31T03:31:41;35.27;30.27;18.36
50587;PMS7003;36546;50.516;30.826;2023-03-31T03:32:44;36.91;32.91;21.64
50587;PMS7003;36546;50.516;30.826;2023-03-31T03:33:46;31.60;28.90;20.00
50587;PMS7003;36546;50.516;30.826;2023-03-31T03:34:48;30.10;28.00;18.60
50587;PMS7003;36546;50.516;30.826;2023-03-31T03:35:50;34.50;30.80;20.40
50587;PMS7003;36546;50.516;30.826;2023-03-31T03:36:53;33.50;30.60;21.20
50587;PMS7003;36546;50.516;30.826;2023-03-31T03:37:55;32.30;29.10;20.20
50587;PMS7003;36546;50.516;30.826;2023-03-31T03:38:57;31.67;26.22;17.44
50587;PMS7003;36546;50.516;30.826;2023-03-31T03:39:59;33.70;30.70;20.20
50587;PMS7003;36546;50.516;30.826;2023-03-31T03:41:01;27.30;27.10;19.20
50587;PMS7003;36546;50.516;30.826;2023-03-31T03:42:04;32.09;27.18;18.27
50587;PMS7003;36546;50.516;30.826;2023-03-31T03:43:06;27.70;25.30;18.00
50587;PMS7003;36546;50.516;30.826;2023-03-31T03:44:09;28.20;24.70;17.10
50587;PMS7003;36546;50.516;30.826;2023-03-31T03:45:11;27.56;26.11;18.78
50587;PMS7003;36546;50.516;30.826;2023-03-31T03:46:14;29.40;26.80;17.40
50587;PMS7003;36546;50.516;30.826;2023-03-31T03:47:16;24.20;23.80;15.80
50587;PMS7003;36546;50.516;30.826;2023-03-31T03:48:18;24.80;23.40;17.20
50587;PMS7003;36546;50.516;30.826;2023-03-31T03:49:21;20.60;17.40;10.30
50587;PMS7003;36546;50.516;30.826;2023-03-31T03:50:23;24.10;22.20;14.70
50587;PMS7003;36546;50.516;30.826;2023-03-31T03:51:25;24.11;21.89;13.78
50587;PMS7003;36546;50.516;30.826;2023-03-31T03:52:28;23.00;21.50;15.20
50587;PMS7003;36546;50.516;30.826;2023-03-31T03:53:30;26.30;23.20;16.00
50587;PMS7003;36546;50.516;30.826;2023-03-31T03:54:32;22.90;21.70;15.40
50587;PMS7003;36546;50.516;30.826;2023-03-31T03:55:34;21.80;18.10;11.70
50587;PMS7003;36546;50.516;30.826;2023-03-31T03:56:36;23.40;22.00;14.50
50587;PMS7003;36546;50.516;30.826;2023-03-31T03:57:38;24.80;19.70;13.70
50587;PMS7003;36546;50.516;30.826;2023-03-31T03:58:41;21.00;19.80;13.50
50587;PMS7003;36546;50.516;30.826;2023-03-31T03:59:43;20.70;18.50;13.30
50587;PMS7003;36546;50.516;30.826;2023-03-31T04:00:45;22.20;19.30;14.20
50587;PMS7003;36546;50.516;30.826;2023-03-31T04:01:47;23.10;21.70;14.70
50587;PMS7003;36546;50.516;30.826;2023-03-31T04:02:50;20.30;17.20;11.80
50587;PMS7003;36546;50.516;30.826;2023-03-31T04:03:52;19.40;16.70;11.50
50587;PMS7003;36546;50.516;30.826;2023-03-31T04:04:54;23.70;20.50;14.40
50587;PMS7003;36546;50.516;30.826;2023-03-31T04:05:58;22.20;20.30;14.60
50587;PMS7003;36546;50.516;30.826;2023-03-31T04:07:00;22.40;19.30;13.00
50587;PMS7003;36546;50.516;30.826;2023-03-31T04:08:11;21.50;21.10;14.40
50587;PMS7003;36546;50.516;30.826;2023-03-31T04:09:13;19.50;19.00;13.30
50587;PMS7003;36546;50.516;30.826;2023-03-31T04:10:16;21.90;20.60;13.70
50587;PMS7003;36546;50.516;30.826;2023-03-31T04:11:20;23.20;18.90;13.20
50587;PMS7003;36546;50.516;30.826;2023-03-31T04:12:25;18.30;17.10;11.10
50587;PMS7003;36546;50.516;30.826;2023-03-31T04:13:28;22.91;20.18;14.55
50587;PMS7003;36546;50.516;30.826;2023-03-31T04:14:30;19.40;18.70;12.90
50587;PMS7003;36546;50.516;30.826;2023-03-31T04:15:32;22.40;20.90;14.50
50587;PMS7003;36546;50.516;30.826;2023-03-31T04:16:35;20.90;18.50;13.50
50587;PMS7003;36546;50.516;30.826;2023-03-31T04:17:37;21.70;19.50;13.90
50587;PMS7003;36546;50.516;30.826;2023-03-31T04:18:39;21.80;19.80;14.70
50587;PMS7003;36546;50.516;30.826;2023-03-31T04:19:43;22.60;18.80;12.70
50587;PMS7003;36546;50.516;30.826;2023-03-31T04:20:46;22.80;21.30;13.60
50587;PMS7003;36546;50.516;30.826;2023-03-31T04:21:48;17.50;16.70;12.30
50587;PMS7003;36546;50.516;30.826;2023-03-31T04:22:50;17.10;16.20;10.80
50587;PMS7003;36546;50.516;30.826;2023-03-31T04:23:53;21.33;19.33;13.89
50587;PMS7003;36546;50.516;30.826;2023-03-31T04:24:56;23.00;19.90;14.30
50587;PMS7003;36546;50.516;30.826;2023-03-31T04:26:00;21.90;20.10;14.30
50587;PMS7003;36546;50.516;30.826;2023-03-31T04:27:02;23.00;21.20;14.40
50587;PMS7003;36546;50.516;30.826;2023-03-31T04:28:04;23.30;19.60;14.20
50587;PMS7003;36546;50.516;30.826;2023-03-31T04:30:39;21.30;21.10;17.70
50587;PMS7003;36546;50.516;30.826;2023-03-31T04:31:41;26.20;20.00;12.90
50587;PMS7003;36546;50.516;30.826;2023-03-31T04:32:45;24.20;22.30;14.00
50587;PMS7003;36546;50.516;30.826;2023-03-31T04:33:47;20.70;18.50;13.50
50587;PMS7003;36546;50.516;30.826;2023-03-31T04:34:49;21.20;17.90;9.70
50587;PMS7003;36546;50.516;30.826;2023-03-31T04:35:52;21.70;19.90;14.40
50587;PMS7003;36546;50.516;30.826;2023-03-31T04:36:56;23.10;19.60;14.10
50587;PMS7003;36546;50.516;30.826;2023-03-31T04:38:01;23.00;20.70;13.90
50587;PMS7003;36546;50.516;30.826;2023-03-31T04:39:03;21.00;18.40;12.80
50587;PMS7003;36546;50.516;30.826;2023-03-31T04:40:07;22.60;20.10;13.60
50587;PMS7003;36546;50.516;30.826;2023-03-31T04:41:10;23.30;20.60;14.10
50587;PMS7003;36546;50.516;30.826;2023-03-31T04:42:12;24.50;21.40;15.50
50587;PMS7003;36546;50.516;30.826;2023-03-31T04:43:17;20.30;18.40;12.20
50587;PMS7003;36546;50.516;30.826;2023-03-31T04:44:21;22.50;20.30;13.50
50587;PMS7003;36546;50.516;30.826;2023-03-31T04:45:23;25.70;22.40;14.60
50587;PMS7003;36546;50.516;30.826;2023-03-31T04:46:25;24.70;23.80;16.50
50587;PMS7003;36546;50.516;30.826;2023-03-31T04:47:28;19.50;17.50;9.70
50587;PMS7003;36546;50.516;30.826;2023-03-31T04:48:30;27.40;27.00;16.70
50587;PMS7003;36546;50.516;30.826;2023-03-31T04:49:33;24.60;21.10;13.30
50587;PMS7003;36546;50.516;30.826;2023-03-31T04:50:36;25.60;23.10;14.70
50587;PMS7003;36546;50.516;30.826;2023-03-31T04:51:38;24.90;22.60;15.20
50587;PMS7003;36546;50.516;30.826;2023-03-31T04:52:41;24.80;22.70;14.80
50587;PMS7003;36546;50.516;30.826;2023-03-31T04:53:43;21.00;19.90;14.20
50587;PMS7003;36546;50.516;30.826;2023-03-31T04:54:45;24.10;21.40;14.90
50587;PMS7003;36546;50.516;30.826;2023-03-31T04:55:48;22.00;20.60;15.10
50587;PMS7003;36546;50.516;30.826;2023-03-31T04:58:02;21.30;20.40;15.80
50587;PMS7003;36546;50.516;30.826;2023-03-31T04:59:04;18.90;18.90;13.40
50587;PMS7003;36546;50.516;30.826;2023-03-31T05:00:07;23.91;21.82;15.00
50587;PMS7003;36546;50.516;30.826;2023-03-31T05:01:11;18.90;17.20;14.30
50587;PMS7003;36546;50.516;30.826;2023-03-31T05:02:13;20.50;16.70;12.20
50587;PMS7003;36546;50.516;30.826;2023-03-31T05:03:15;18.70;17.00;12.50
50587;PMS7003;36546;50.516;30.826;2023-03-31T05:04:18;11.00;9.00;7.10
50587;PMS7003;36546;50.516;30.826;2023-03-31T05:05:21;20.90;19.10;12.70
50587;PMS7003;36546;50.516;30.826;2023-03-31T05:06:23;5.50;5.50;1.00
50587;PMS7003;36546;50.516;30.826;2023-03-31T05:07:25;18.10;17.00;12.80
50587;PMS7003;36546;50.516;30.826;2023-03-31T05:08:28;18.90;16.30;11.90
50587;PMS7003;36546;50.516;30.826;2023-03-31T05:09:31;17.90;16.10;12.20
50587;PMS7003;36546;50.516;30.826;2023-03-31T05:10:35;18.80;17.70;11.80
50587;PMS7003;36546;50.516;30.826;2023-03-31T05:11:37;20.30;16.70;11.60
50587;PMS7003;36546;50.516;30.826;2023-03-31T05:12:40;16.50;15.80;10.50
50587;PMS7003;36546;50.516;30.826;2023-03-31T05:13:42;18.70;16.70;12.60
50587;PMS7003;36546;50.516;30.826;2023-03-31T05:14:44;16.50;15.60;11.90
50587;PMS7003;36546;50.516;30.826;2023-03-31T05:15:46;18.80;17.00;12.90
50587;PMS7003;36546;50.516;30.826;2023-03-31T05:16:49;16.09;15.45;10.45
50587;PMS7003;36546;50.516;30.826;2023-03-31T05:17:52;16.20;15.70;12.20
50587;PMS7003;36546;50.516;30.826;2023-03-31T05:18:54;19.90;16.80;12.20
50587;PMS7003;36546;50.516;30.826;2023-03-31T05:19:56;18.80;17.10;11.90
50587;PMS7003;36546;50.516;30.826;2023-03-31T05:21:07;18.60;15.90;11.80
50587;PMS7003;36546;50.516;30.826;2023-03-31T05:22:17;19.70;17.80;14.00
50587;PMS7003;36546;50.516;30.826;2023-03-31T05:23:19;19.40;18.30;13.60
50587;PMS7003;36546;50.516;30.826;2023-03-31T05:24:22;18.80;16.80;12.60
50587;PMS7003;36546;50.516;30.826;2023-03-31T05:25:24;18.30;16.70;12.60
50587;PMS7003;36546;50.516;30.826;2023-03-31T05:26:26;19.80;19.30;12.70
50587;PMS7003;36546;50.516;30.826;2023-03-31T05:27:29;17.30;15.50;10.70
50587;PMS7003;36546;50.516;30.826;2023-03-31T05:28:31;17.09;16.00;12.55
50587;PMS7003;36546;50.516;30.826;2023-03-31T05:29:33;19.70;17.80;12.60
50587;PMS7003;36546;50.516;30.826;2023-03-31T05:30:36;19.70;18.40;12.00
50587;PMS7003;36546;50.516;30.826;2023-03-31T05:31:37;18.33;16.56;11.44
50587;PMS7003;36546;50.516;30.826;2023-03-31T05:32:42;18.10;17.10;12.40
50587;PMS7003;36546;50.516;30.826;2023-03-31T05:33:45;19.40;18.80;13.50
50587;PMS7003;36546;50.516;30.826;2023-03-31T05:34:47;19.40;18.10;12.20
50587;PMS7003;36546;50.516;30.826;2023-03-31T05:35:51;18.50;17.70;12.90
50587;PMS7003;36546;50.516;30.826;2023-03-31T05:36:54;16.80;16.50;13.30
50587;PMS7003;36546;50.516;30.826;2023-03-31T05:37:56;17.80;17.30;12.80
50587;PMS7003;36546;50.516;30.826;2023-03-31T05:38:58;22.30;18.90;13.20
50587;PMS7003;36546;50.516;30.826;2023-03-31T05:40:00;19.00;18.40;12.10
50587;PMS7003;36546;50.516;30.826;2023-03-31T05:41:03;21.40;18.60;14.10
50587;PMS7003;36546;50.516;30.826;2023-03-31T05:42:06;20.80;17.50;12.60
50587;PMS7003;36546;50.516;30.826;2023-03-31T05:43:08;18.30;17.30;11.80
50587;PMS7003;36546;50.516;30.826;2023-03-31T05:44:10;19.90;17.90;13.00
50587;PMS7003;36546;50.516;30.826;2023-03-31T05:45:13;22.40;20.50;13.00
50587;PMS7003;36546;50.516;30.826;2023-03-31T05:46:15;20.40;18.30;12.40
50587;PMS7003;36546;50.516;30.826;2023-03-31T05:47:18;20.10;17.90;13.40
50587;PMS7003;36546;50.516;30.826;2023-03-31T05:48:20;19.20;16.80;13.20
50587;PMS7003;36546;50.516;30.826;2023-03-31T05:49:23;20.70;19.40;12.30
50587;PMS7003;36546;50.516;30.826;2023-03-31T05:50:25;16.10;14.00;10.80
50587;PMS7003;36546;50.516;30.826;2023-03-31T05:51:27;19.30;17.20;12.50
50587;PMS7003;36546;50.516;30.826;2023-03-31T05:52:30;19.22;17.11;12.22
50587;PMS7003;36546;50.516;30.826;2023-03-31T05:53:32;20.40;19.20;12.70
50587;PMS7003;36546;50.516;30.826;2023-03-31T05:54:34;18.30;17.00;12.40
50587;PMS7003;36546;50.516;30.826;2023-03-31T05:55:37;17.91;17.00;10.73
50587;PMS7003;36546;50.516;30.826;2023-03-31T05:56:40;19.90;18.70;13.00
50587;PMS7003;36546;50.516;30.826;2023-03-31T05:57:42;20.10;17.80;13.50
50587;PMS7003;36546;50.516;30.826;2023-03-31T05:58:44;21.50;18.70;12.60
50587;PMS7003;36546;50.516;30.826;2023-03-31T05:59:47;19.00;18.00;13.00
50587;PMS7003;36546;50.516;30.826;2023-03-31T06:00:49;20.50;18.40;12.80
50587;PMS7003;36546;50.516;30.826;2023-03-31T06:01:52;19.18;17.45;14.09
50587;PMS7003;36546;50.516;30.826;2023-03-31T06:02:54;20.90;17.40;12.20
50587;PMS7003;36546;50.516;30.826;2023-03-31T06:03:57;21.20;19.90;14.80
50587;PMS7003;36546;50.516;30.826;2023-03-31T06:04:59;21.90;19.50;13.50
50587;PMS7003;36546;50.516;30.826;2023-03-31T06:06:03;20.30;18.00;13.20
50587;PMS7003;36546;50.516;30.826;2023-03-31T06:07:06;22.50;21.00;13.60
50587;PMS7003;36546;50.516;30.826;2023-03-31T06:08:08;23.00;21.80;14.60
50587;PMS7003;36546;50.516;30.826;2023-03-31T06:09:11;22.30;18.20;13.40
50587;PMS7003;36546;50.516;30.826;2023-03-31T06:10:13;21.80;19.00;13.00
50587;PMS7003;36546;50.516;30.826;2023-03-31T06:11:16;23.40;20.70;14.30
50587;PMS7003;36546;50.516;30.826;2023-03-31T06:12:20;20.90;20.00;15.50
50587;PMS7003;36546;50.516;30.826;2023-03-31T06:13:24;21.70;19.90;13.70
50587;PMS7003;36546;50.516;30.826;2023-03-31T06:14:26;22.20;20.10;14.50
50587;PMS7003;36546;50.516;30.826;2023-03-31T06:15:28;26.10;22.90;15.60
50587;PMS7003;36546;50.516;30.826;2023-03-31T06:16:31;24.90;21.80;15.60
50587;PMS7003;36546;50.516;30.826;2023-03-31T06:17:33;28.50;22.80;15.20
50587;PMS7003;36546;50.516;30.826;2023-03-31T06:18:38;24.30;21.80;14.30
50587;PMS7003;36546;50.516;30.826;2023-03-31T06:19:41;27.80;23.90;16.10
50587;PMS7003;36546;50.516;30.826;2023-03-31T06:20:43;14.90;10.90;4.20
50587;PMS7003;36546;50.516;30.826;2023-03-31T06:21:45;20.50;16.70;10.50
50587;PMS7003;36546;50.516;30.826;2023-03-31T06:22:48;23.10;21.20;15.90
50587;PMS7003;36546;50.516;30.826;2023-03-31T06:23:50;25.40;22.30;14.80
50587;PMS7003;36546;50.516;30.826;2023-03-31T06:24:52;8.40;6.10;1.20
50587;PMS7003;36546;50.516;30.826;2023-03-31T06:26:01;25.90;22.60;15.50
50587;PMS7003;36546;50.516;30.826;2023-03-31T06:27:09;29.70;25.60;17.80
50587;PMS7003;36546;50.516;30.826;2023-03-31T06:28:11;24.10;21.10;14.10
50587;PMS7003;36546;50.516;30.826;2023-03-31T06:29:13;26.56;23.00;17.11
50587;PMS7003;36546;50.516;30.826;2023-03-31T06:30:16;27.80;25.10;15.60
50587;PMS7003;36546;50.516;30.826;2023-03-31T06:31:20;24.60;23.40;15.40
50587;PMS7003;36546;50.516;30.826;2023-03-31T06:32:25;26.20;24.80;16.10
50587;PMS7003;36546;50.516;30.826;2023-03-31T06:33:27;26.60;23.50;16.20
50587;PMS7003;36546;50.516;30.826;2023-03-31T06:34:29;25.90;23.80;16.40
50587;PMS7003;36546;50.516;30.826;2023-03-31T06:35:31;14.44;12.78;9.22
50587;PMS7003;36546;50.516;30.826;2023-03-31T06:36:33;25.40;21.70;15.50
50587;PMS7003;36546;50.516;30.826;2023-03-31T06:37:36;26.70;23.50;15.50
50587;PMS7003;36546;50.516;30.826;2023-03-31T06:38:38;24.30;21.50;14.40
50587;PMS7003;36546;50.516;30.826;2023-03-31T06:39:40;23.30;21.40;15.00
50587;PMS7003;36546;50.516;30.826;2023-03-31T06:40:42;21.60;19.40;14.40
50587;PMS7003;36546;50.516;30.826;2023-03-31T06:41:44;18.60;18.00;13.40
50587;PMS7003;36546;50.516;30.826;2023-03-31T06:42:48;20.00;19.10;13.40
50587;PMS7003;36546;50.516;30.826;2023-03-31T06:43:51;20.00;19.90;14.20
50587;PMS7003;36546;50.516;30.826;2023-03-31T06:44:54;22.64;19.73;13.91
50587;PMS7003;36546;50.516;30.826;2023-03-31T06:45:56;20.30;19.30;14.90
50587;PMS7003;36546;50.516;30.826;2023-03-31T06:46:58;21.60;18.20;12.70
50587;PMS7003;36546;50.516;30.826;2023-03-31T06:48:01;21.00;17.10;12.00
50587;PMS7003;36546;50.516;30.826;2023-03-31T06:49:03;21.60;18.40;11.80
50587;PMS7003;36546;50.516;30.826;2023-03-31T06:50:07;21.55;17.45;12.55